Time;durP1;ratioP1;P1;durP2;ratioP2;P2;SDS_P1;SDS_P2;PMS_P1;PMS_P2;Temp;Humidity;BMP_temperature;BMP_pressure;BME280_temperature;BME280_humidity;BME280_pressure;Samples;Min_cycle;Max_cycle;Signal;HPM_P1;HPM_P2
2023/04/27 00:02:01;;;;;;;6.15;4.82;;;9.70;52.70;;;;;;5039434;28;20386;-44
2023/04/27 00:04:31;;;;;;;10.38;5.10;;;9.70;52.90;;;;;;5048659;28;20094;-43
2023/04/27 00:07:02;;;;;;;7.32;5.38;;;9.60;53.30;;;;;;5049557;28;20041;-49
2023/04/27 00:09:29;;;;;;;5.45;4.95;;;9.60;53.40;;;;;;5045584;28;20041;-43
2023/04/27 00:11:55;;;;;;;7.88;5.55;;;9.60;53.50;;;;;;5041698;28;20390;-49
2023/04/27 00:14:22;;;;;;;6.45;5.50;;;9.60;53.80;;;;;;5050389;28;20118;-46
2023/04/27 00:16:52;;;;;;;6.00;5.38;;;9.60;53.90;;;;;;5046866;28;20037;-48
2023/04/27 00:19:18;;;;;;;8.13;5.95;;;9.60;53.90;;;;;;5041399;28;20595;-44
2023/04/27 00:21:45;;;;;;;6.35;5.68;;;9.60;54.00;;;;;;5049818;28;20512;-45
2023/04/27 00:24:15;;;;;;;6.18;5.30;;;9.60;54.10;;;;;;5045806;28;20041;-48
2023/04/27 00:26:41;;;;;;;6.82;5.07;;;9.60;54.30;;;;;;5046603;28;20052;-46
2023/04/27 00:29:13;;;;;;;7.30;4.88;;;9.60;54.10;;;;;;5019714;28;20094;-49
2023/04/27 00:31:44;;;;;;;5.03;4.53;;;9.60;54.30;;;;;;5045711;28;20077;-48
2023/04/27 00:34:13;;;;;;;6.47;4.50;;;9.50;54.10;;;;;;5012500;28;20037;-45
2023/04/27 00:36:42;;;;;;;7.55;5.00;;;9.50;54.00;;;;;;5029975;28;20670;-47
2023/04/27 00:39:12;;;;;;;6.82;5.13;;;9.50;54.20;;;;;;5044455;28;20138;-45
2023/04/27 00:41:42;;;;;;;5.47;4.55;;;9.50;54.00;;;;;;5028510;28;20045;-44
2023/04/27 00:44:10;;;;;;;6.20;5.30;;;9.50;54.20;;;;;;5011615;28;20048;-46
2023/04/27 00:46:42;;;;;;;7.45;5.28;;;9.40;54.10;;;;;;5037738;28;20041;-45
2023/04/27 00:49:12;;;;;;;5.78;4.90;;;9.40;54.10;;;;;;5047770;28;20065;-47
2023/04/27 00:51:39;;;;;;;5.22;4.53;;;9.40;54.10;;;;;;5029260;28;20132;-46
2023/04/27 00:54:06;;;;;;;6.65;4.72;;;9.30;54.10;;;;;;5025272;28;20049;-45
2023/04/27 00:56:38;;;;;;;6.63;4.72;;;9.30;54.10;;;;;;5041244;28;20481;-45
2023/04/27 00:59:04;;;;;;;5.72;4.68;;;9.20;54.10;;;;;;5043261;28;20033;-47
2023/04/27 01:01:31;;;;;;;6.22;4.45;;;9.20;54.20;;;;;;5046263;28;20063;-45
2023/04/27 01:03:58;;;;;;;6.05;4.65;;;9.20;54.30;;;;;;5038647;28;20125;-46
2023/04/27 01:06:28;;;;;;;5.10;4.00;;;9.20;54.30;;;;;;5032414;28;20029;-48
2023/04/27 01:08:55;;;;;;;4.22;3.83;;;9.20;54.30;;;;;;5043268;28;20036;-45
2023/04/27 01:11:22;;;;;;;5.70;4.55;;;9.10;54.30;;;;;;5047276;28;20076;-45
2023/04/27 01:13:54;;;;;;;4.53;4.13;;;9.10;54.30;;;;;;5030000;28;20056;-49
2023/04/27 01:16:23;;;;;;;7.03;4.45;;;9.10;54.20;;;;;;5044443;28;20480;-46
2023/04/27 01:18:50;;;;;;;4.40;3.78;;;9.00;54.10;;;;;;5048359;28;20154;-44
2023/04/27 01:21:16;;;;;;;5.43;4.53;;;9.00;54.00;;;;;;5040562;28;20043;-44
2023/04/27 01:23:51;;;;;;;5.97;4.40;;;8.90;53.90;;;;;;5037596;28;20730;-44
2023/04/27 01:26:17;;;;;;;5.72;4.20;;;8.90;54.00;;;;;;5043708;28;20045;-45
2023/04/27 01:28:47;;;;;;;5.75;4.28;;;8.80;54.10;;;;;;5034470;28;20102;-45
2023/04/27 01:31:23;;;;;;;7.90;4.60;;;8.70;54.10;;;;;;5049049;28;20489;-45
2023/04/27 01:33:50;;;;;;;6.00;4.40;;;8.70;54.60;;;;;;5032214;28;20041;-45
2023/04/27 01:36:16;;;;;;;5.90;3.92;;;8.60;54.10;;;;;;5033023;28;20041;-49
2023/04/27 01:38:43;;;;;;;6.30;4.63;;;8.60;54.10;;;;;;5023056;28;20440;-44
2023/04/27 01:41:16;;;;;;;4.95;4.35;;;8.60;54.20;;;;;;5041800;28;20119;-49
2023/04/27 01:43:42;;;;;;;4.57;4.10;;;8.50;54.00;;;;;;5028329;28;20793;-48
2023/04/27 01:46:15;;;;;;;5.30;3.95;;;8.50;54.10;;;;;;5022209;28;20056;-45
2023/04/27 01:48:42;;;;;;;5.65;4.53;;;8.40;54.10;;;;;;5042991;28;20049;-46
2023/04/27 01:51:14;;;;;;;4.40;3.65;;;8.30;54.00;;;;;;5041404;28;20057;-44
2023/04/27 01:53:43;;;;;;;6.40;4.85;;;8.30;54.20;;;;;;5043811;28;20054;-45
2023/04/27 01:56:10;;;;;;;5.82;4.30;;;8.30;54.10;;;;;;5042306;28;20045;-45
2023/04/27 01:58:41;;;;;;;6.03;4.13;;;8.20;54.20;;;;;;5041711;28;20046;-48
2023/04/27 02:01:08;;;;;;;4.45;3.83;;;8.10;54.20;;;;;;5043864;28;20461;-44
2023/04/27 02:03:36;;;;;;;5.18;4.00;;;8.10;54.20;;;;;;5012255;28;20100;-45
2023/04/27 02:06:05;;;;;;;5.00;4.05;;;8.00;54.30;;;;;;5041545;28;20041;-46
2023/04/27 02:08:35;;;;;;;5.18;4.10;;;8.00;54.30;;;;;;5037897;28;20501;-45
2023/04/27 02:11:05;;;;;;;4.50;3.70;;;7.90;54.20;;;;;;5040160;28;20056;-45
2023/04/27 02:13:39;;;;;;;6.32;3.53;;;7.90;54.20;;;;;;5047037;28;20439;-46
2023/04/27 02:16:08;;;;;;;4.03;3.55;;;7.90;54.20;;;;;;5043299;28;20398;-47
2023/04/27 02:18:35;;;;;;;6.00;4.00;;;7.80;54.20;;;;;;5044679;28;20037;-45
2023/04/27 02:21:07;;;;;;;6.20;3.85;;;7.80;54.30;;;;;;5010817;28;20057;-43
2023/04/27 02:23:35;;;;;;;5.88;3.70;;;7.70;54.60;;;;;;5012076;28;20037;-44
2023/04/27 02:26:02;;;;;;;5.35;4.13;;;7.70;54.40;;;;;;4998594;28;20485;-44
2023/04/27 02:28:29;;;;;;;5.30;4.00;;;7.60;54.40;;;;;;5039303;28;20054;-46
2023/04/27 02:30:57;;;;;;;6.32;4.13;;;7.60;54.60;;;;;;5023604;28;20493;-45
2023/04/27 02:33:25;;;;;;;5.63;4.40;;;7.50;54.60;;;;;;5048045;28;20047;-44
2023/04/27 02:35:56;;;;;;;5.30;4.03;;;7.50;54.80;;;;;;5043161;28;20305;-43
2023/04/27 02:38:22;;;;;;;4.93;4.20;;;7.50;54.80;;;;;;5043934;28;20053;-45
2023/04/27 02:40:55;;;;;;;4.45;3.78;;;7.50;54.90;;;;;;5047044;28;20049;-47
2023/04/27 02:43:24;;;;;;;5.00;3.72;;;7.40;55.10;;;;;;5033689;28;20052;-44
2023/04/27 02:45:53;;;;;;;5.68;4.28;;;7.40;55.00;;;;;;5024890;28;20037;-46
2023/04/27 02:48:22;;;;;;;5.30;3.88;;;7.40;54.90;;;;;;5049298;28;20122;-48
2023/04/27 02:50:48;;;;;;;7.28;3.90;;;7.30;54.80;;;;;;5031732;28;20052;-44
2023/04/27 02:53:15;;;;;;;6.15;4.20;;;7.30;54.90;;;;;;5022394;28;20040;-46
2023/04/27 02:55:48;;;;;;;4.68;4.20;;;7.30;55.00;;;;;;5046475;28;20055;-44
2023/04/27 02:58:20;;;;;;;6.68;4.13;;;7.20;55.30;;;;;;5036064;28;20053;-45
2023/04/27 03:00:58;;;;;;;5.95;3.83;;;7.20;55.70;;;;;;5046382;28;20041;-48
2023/04/27 03:03:31;;;;;;;5.80;3.95;;;7.20;55.10;;;;;;5032015;28;20060;-45
2023/04/27 03:06:00;;;;;;;6.68;4.82;;;7.20;55.20;;;;;;5037957;28;20033;-47
2023/04/27 03:08:27;;;;;;;7.22;4.07;;;7.10;55.00;;;;;;5037022;28;20103;-45
2023/04/27 03:11:02;;;;;;;7.18;4.50;;;7.10;55.10;;;;;;5042771;28;20408;-45
2023/04/27 03:13:29;;;;;;;5.57;3.85;;;7.10;55.30;;;;;;5033811;28;20045;-45
2023/04/27 03:15:56;;;;;;;5.70;3.92;;;7.10;55.20;;;;;;5031558;28;20203;-44
2023/04/27 03:18:27;;;;;;;5.25;4.22;;;7.00;55.20;;;;;;5044571;28;20428;-44
2023/04/27 03:21:07;;;;;;;7.05;4.40;;;7.00;55.40;;;;;;5042157;28;20135;-47
2023/04/27 03:23:42;;;;;;;6.43;4.72;;;7.00;55.60;;;;;;5033580;28;20128;-45
2023/04/27 03:26:12;;;;;;;7.07;4.40;;;7.00;55.70;;;;;;5041115;28;20408;-43
2023/04/27 03:28:40;;;;;;;5.93;4.68;;;6.90;55.20;;;;;;5045167;28;20128;-45
2023/04/27 03:31:13;;;;;;;6.32;4.15;;;6.90;55.30;;;;;;5050019;28;20413;-46
2023/04/27 03:33:42;;;;;;;5.55;4.07;;;6.90;55.50;;;;;;5033804;28;20099;-49
2023/04/27 03:36:10;;;;;;;5.72;3.83;;;6.80;55.40;;;;;;5031634;28;20041;-44
2023/04/27 03:38:40;;;;;;;4.85;4.20;;;6.80;55.40;;;;;;5047825;28;20053;-47
2023/04/27 03:41:10;;;;;;;8.77;4.63;;;6.80;55.50;;;;;;5038966;28;20068;-45
2023/04/27 03:43:37;;;;;;;5.53;4.30;;;6.80;55.50;;;;;;5030300;28;20041;-44
2023/04/27 03:46:08;;;;;;;7.75;3.75;;;6.70;55.50;;;;;;5014451;28;20044;-45
2023/04/27 03:48:37;;;;;;;8.90;4.47;;;6.80;55.60;;;;;;5047006;28;20130;-45
2023/04/27 03:51:07;;;;;;;4.78;4.00;;;6.70;55.50;;;;;;5032575;28;20048;-46
2023/04/27 03:53:39;;;;;;;5.75;3.92;;;6.70;55.70;;;;;;5033519;28;20659;-45
2023/04/27 03:56:08;;;;;;;5.03;3.90;;;6.70;55.60;;;;;;5016707;28;20581;-45
2023/04/27 03:58:35;;;;;;;4.80;3.90;;;6.60;55.50;;;;;;5024771;28;20057;-47
2023/04/27 04:01:09;;;;;;;5.18;4.15;;;6.70;55.70;;;;;;5046125;28;20086;-43
2023/04/27 04:03:42;;;;;;;6.40;4.60;;;6.60;55.70;;;;;;5032126;28;20497;-46
2023/04/27 04:06:10;;;;;;;5.18;4.15;;;6.60;55.80;;;;;;5025212;28;20409;-43
2023/04/27 04:08:38;;;;;;;5.55;3.78;;;6.60;55.80;;;;;;5035231;28;20225;-43
2023/04/27 04:11:04;;;;;;;6.75;4.93;;;6.60;55.80;;;;;;5044853;28;20052;-45
2023/04/27 04:13:38;;;;;;;6.78;4.28;;;6.50;55.90;;;;;;5049660;28;20056;-45
2023/04/27 04:16:06;;;;;;;6.65;4.15;;;6.50;56.00;;;;;;5046448;28;20033;-47
2023/04/27 04:18:42;;;;;;;5.07;4.00;;;6.50;55.90;;;;;;5044448;28;20140;-48
2023/04/27 04:21:10;;;;;;;6.05;4.10;;;6.50;55.90;;;;;;5026498;28;20060;-46
2023/04/27 04:23:40;;;;;;;4.78;3.80;;;6.40;55.90;;;;;;5030893;28;20498;-45
2023/04/27 04:26:26;;;;;;;6.28;4.20;;;6.40;56.00;;;;;;5042959;28;20107;-44
2023/04/27 04:28:52;;;;;;;5.10;3.70;;;6.40;55.90;;;;;;5027210;28;20045;-45
2023/04/27 04:31:20;;;;;;;5.28;3.80;;;6.40;56.00;;;;;;5033976;28;20041;-45
2023/04/27 04:33:53;;;;;;;6.97;4.05;;;6.40;56.10;;;;;;5049342;28;20536;-44
2023/04/27 04:36:20;;;;;;;5.75;4.47;;;6.40;56.20;;;;;;5035114;28;20045;-45
2023/04/27 04:38:51;;;;;;;7.53;4.80;;;6.40;56.20;;;;;;5028578;28;20111;-45
2023/04/27 04:41:18;;;;;;;5.88;4.47;;;6.40;56.30;;;;;;5043253;28;20120;-44
2023/04/27 04:43:47;;;;;;;7.10;4.32;;;6.40;56.40;;;;;;5038540;28;20041;-45
2023/04/27 04:46:18;;;;;;;6.53;4.65;;;6.40;56.50;;;;;;5042208;28;20037;-45
2023/04/27 04:48:45;;;;;;;5.45;4.43;;;6.40;56.60;;;;;;5043336;28;20064;-47
2023/04/27 04:51:12;;;;;;;6.97;4.82;;;6.40;56.60;;;;;;5042239;28;20056;-44
2023/04/27 04:53:39;;;;;;;7.00;4.60;;;6.40;56.70;;;;;;5041158;28;20049;-45
2023/04/27 04:56:11;;;;;;;7.05;5.28;;;6.40;56.80;;;;;;5035568;28;20677;-44
2023/04/27 04:58:38;;;;;;;8.05;5.18;;;6.40;57.20;;;;;;5035122;28;20570;-45
2023/04/27 05:01:05;;;;;;;6.57;4.78;;;6.40;56.90;;;;;;5047826;28;20061;-44
2023/04/27 05:03:32;;;;;;;7.63;5.18;;;6.40;57.60;;;;;;5042725;28;20041;-44
2023/04/27 05:05:59;;;;;;;7.35;5.10;;;6.40;57.00;;;;;;5037753;28;20239;-44
2023/04/27 05:08:26;;;;;;;7.78;5.28;;;6.50;57.20;;;;;;5042827;28;20033;-44
2023/04/27 05:10:53;;;;;;;7.40;5.50;;;6.50;57.30;;;;;;5036899;28;20529;-46
2023/04/27 05:13:20;;;;;;;7.72;5.15;;;6.50;57.40;;;;;;5030949;28;20037;-44
2023/04/27 05:15:47;;;;;;;8.00;5.38;;;6.50;58.20;;;;;;5042249;28;20412;-45
2023/04/27 05:18:14;;;;;;;8.52;5.93;;;6.50;57.60;;;;;;5043226;28;20449;-44
2023/04/27 05:20:41;;;;;;;9.07;5.55;;;6.60;57.70;;;;;;5035696;28;20045;-45
2023/04/27 05:23:07;;;;;;;9.70;5.65;;;6.60;57.70;;;;;;5037916;28;20049;-44
2023/04/27 05:25:40;;;;;;;7.53;6.07;;;6.60;57.80;;;;;;5040002;28;20405;-45
2023/04/27 05:28:08;;;;;;;10.77;6.18;;;6.70;57.90;;;;;;5027141;28;20509;-45
2023/04/27 05:30:35;;;;;;;10.48;6.53;;;6.70;58.10;;;;;;5042588;28;20497;-45
2023/04/27 05:33:03;;;;;;;11.80;6.80;;;6.70;58.10;;;;;;5048348;28;20037;-44
2023/04/27 05:35:30;;;;;;;9.68;6.03;;;6.80;58.10;;;;;;5047722;28;20119;-48
2023/04/27 05:37:56;;;;;;;10.35;6.47;;;6.80;58.20;;;;;;5042556;28;20804;-46
2023/04/27 05:40:23;;;;;;;10.25;6.60;;;6.80;58.20;;;;;;5033897;28;20501;-44
2023/04/27 05:42:52;;;;;;;11.70;7.20;;;6.90;58.30;;;;;;5030613;28;20095;-45
2023/04/27 05:45:21;;;;;;;9.77;6.10;;;6.90;58.50;;;;;;5033639;28;20397;-44
2023/04/27 05:47:48;;;;;;;10.25;6.65;;;7.00;58.40;;;;;;5043832;28;20053;-45
2023/04/27 05:50:15;;;;;;;8.95;7.07;;;7.00;58.50;;;;;;5034798;28;20048;-45
2023/04/27 05:52:41;;;;;;;11.38;7.15;;;7.00;58.50;;;;;;5029755;28;20052;-45
2023/04/27 05:55:08;;;;;;;13.77;6.78;;;7.00;58.50;;;;;;5046452;28;20041;-47
2023/04/27 05:57:35;;;;;;;9.13;7.32;;;7.10;58.80;;;;;;5039920;28;20043;-44
2023/04/27 06:00:07;;;;;;;10.85;7.35;;;7.20;59.00;;;;;;5043161;28;20188;-44
2023/04/27 06:02:37;;;;;;;11.68;7.18;;;7.20;59.10;;;;;;5038274;28;20919;-46
2023/04/27 06:05:05;;;;;;;9.85;7.13;;;7.30;59.20;;;;;;5047461;28;20037;-48
2023/04/27 06:07:36;;;;;;;10.23;6.60;;;7.30;59.40;;;;;;5045086;28;20497;-45
2023/04/27 06:10:03;;;;;;;10.10;7.05;;;7.40;59.60;;;;;;5042352;28;20036;-45
2023/04/27 06:12:30;;;;;;;10.68;7.10;;;7.50;59.70;;;;;;5048047;28;20041;-45
2023/04/27 06:14:57;;;;;;;12.73;8.20;;;7.60;59.90;;;;;;5045396;28;20476;-47
2023/04/27 06:17:23;;;;;;;12.45;7.60;;;7.60;59.80;;;;;;5051559;28;20041;-47
2023/04/27 06:19:50;;;;;;;10.68;7.00;;;7.70;59.70;;;;;;5042611;28;20048;-48
2023/04/27 06:22:17;;;;;;;11.63;7.65;;;7.80;59.70;;;;;;5041663;28;20047;-45
2023/04/27 06:24:43;;;;;;;10.75;6.70;;;7.90;59.70;;;;;;5049242;28;20044;-45
2023/04/27 06:27:10;;;;;;;10.48;6.90;;;8.00;59.60;;;;;;5052976;28;20048;-44
2023/04/27 06:29:37;;;;;;;13.65;6.47;;;8.10;59.50;;;;;;5043544;28;20048;-46
2023/04/27 06:32:05;;;;;;;10.00;6.72;;;8.20;59.60;;;;;;5032413;28;20072;-45
2023/04/27 06:34:35;;;;;;;8.93;6.25;;;8.30;59.40;;;;;;5044165;28;20041;-44
2023/04/27 06:37:02;;;;;;;8.98;6.65;;;8.40;59.60;;;;;;5044506;28;20048;-45
2023/04/27 06:39:31;;;;;;;8.90;6.88;;;8.50;59.10;;;;;;5037312;28;20497;-46
2023/04/27 06:41:57;;;;;;;10.48;6.78;;;8.50;59.10;;;;;;5050526;28;20045;-45
2023/04/27 06:44:24;;;;;;;11.13;7.15;;;8.60;58.90;;;;;;5047796;28;20037;-45
2023/04/27 06:46:51;;;;;;;10.57;6.75;;;8.70;58.70;;;;;;5046709;28;20112;-47
2023/04/27 06:49:17;;;;;;;10.10;6.75;;;8.80;58.70;;;;;;5042721;28;20040;-45
2023/04/27 06:51:45;;;;;;;12.07;6.43;;;8.90;58.50;;;;;;5051053;28;20044;-45
2023/04/27 06:54:12;;;;;;;11.85;6.90;;;9.00;58.50;;;;;;5039287;28;20060;-47
2023/04/27 06:56:38;;;;;;;9.93;6.93;;;9.10;58.40;;;;;;5047004;28;20056;-45
2023/04/27 06:59:05;;;;;;;9.07;6.82;;;9.20;58.20;;;;;;5041535;28;20492;-46
2023/04/27 07:01:32;;;;;;;8.52;6.40;;;9.20;58.20;;;;;;5045478;28;20053;-46
2023/04/27 07:03:58;;;;;;;8.40;6.93;;;9.30;58.00;;;;;;5047653;28;20729;-45
2023/04/27 07:06:27;;;;;;;9.73;6.07;;;9.40;58.50;;;;;;5037260;28;20086;-45
2023/04/27 07:08:54;;;;;;;10.45;5.78;;;9.50;57.60;;;;;;5038348;28;20038;-46
2023/04/27 07:11:21;;;;;;;10.60;6.50;;;9.60;57.40;;;;;;5036947;28;20048;-45
2023/04/27 07:13:48;;;;;;;9.95;7.38;;;9.70;57.40;;;;;;5046535;28;20041;-44
2023/04/27 07:16:15;;;;;;;7.80;6.20;;;9.70;57.10;;;;;;5041173;28;20152;-46
2023/04/27 07:18:42;;;;;;;14.20;6.25;;;9.80;57.00;;;;;;5031401;28;20879;-44
2023/04/27 07:21:10;;;;;;;7.75;6.13;;;9.90;56.70;;;;;;5039093;28;20404;-45
2023/04/27 07:23:42;;;;;;;8.45;6.70;;;9.90;56.70;;;;;;5045012;28;20392;-44
2023/04/27 07:26:09;;;;;;;10.40;6.53;;;10.00;56.50;;;;;;5041694;28;20060;-44
2023/04/27 07:28:35;;;;;;;8.75;6.38;;;10.10;56.40;;;;;;5043441;28;20120;-44
2023/04/27 07:31:05;;;;;;;12.50;6.75;;;10.10;56.40;;;;;;5047269;28;21806;-44
2023/04/27 07:33:33;;;;;;;8.00;5.93;;;10.20;56.30;;;;;;5031350;28;20041;-44
2023/04/27 07:36:01;;;;;;;10.88;6.78;;;10.30;56.10;;;;;;5043373;28;20045;-44
2023/04/27 07:38:29;;;;;;;10.25;6.15;;;10.30;55.80;;;;;;5038614;28;20704;-44
2023/04/27 07:40:59;;;;;;;9.95;6.53;;;10.40;55.80;;;;;;5030409;28;20048;-44
2023/04/27 07:43:25;;;;;;;9.55;6.53;;;10.40;55.40;;;;;;5044249;28;20090;-49
2023/04/27 07:45:53;;;;;;;8.82;6.95;;;10.50;55.10;;;;;;5037181;28;20060;-45
2023/04/27 07:48:22;;;;;;;7.68;6.00;;;10.60;55.10;;;;;;5045319;28;20045;-44
2023/04/27 07:50:49;;;;;;;10.13;6.70;;;10.60;54.80;;;;;;5047702;28;20045;-45
2023/04/27 07:53:16;;;;;;;9.38;5.95;;;10.70;54.70;;;;;;5045714;28;20041;-46
2023/04/27 07:55:43;;;;;;;9.65;6.55;;;10.70;54.40;;;;;;5042999;28;20056;-45
2023/04/27 07:58:10;;;;;;;8.52;5.75;;;10.80;54.30;;;;;;5040658;28;20056;-46
2023/04/27 08:00:37;;;;;;;9.13;5.93;;;10.90;54.10;;;;;;5040801;28;20040;-44
2023/04/27 08:03:04;;;;;;;9.48;6.15;;;11.00;54.00;;;;;;5037979;28;20045;-45
2023/04/27 08:05:31;;;;;;;9.27;6.18;;;11.00;53.80;;;;;;5050247;28;20083;-45
2023/04/27 08:07:58;;;;;;;7.68;6.00;;;11.10;53.90;;;;;;5040416;28;20077;-46
2023/04/27 08:10:25;;;;;;;6.93;5.80;;;11.20;53.70;;;;;;5037686;28;20095;-47
2023/04/27 08:12:52;;;;;;;7.60;5.78;;;11.20;53.20;;;;;;5047082;28;20425;-46
2023/04/27 08:15:19;;;;;;;9.63;6.47;;;11.30;53.00;;;;;;5041848;28;20410;-48
2023/04/27 08:17:46;;;;;;;10.88;6.93;;;11.40;53.00;;;;;;5042113;28;20049;-44
2023/04/27 08:20:15;;;;;;;8.70;6.40;;;11.40;52.60;;;;;;5038735;28;20037;-45
2023/04/27 08:22:42;;;;;;;9.75;6.53;;;11.50;52.30;;;;;;5041393;28;20125;-45
2023/04/27 08:25:09;;;;;;;10.43;6.55;;;11.50;52.00;;;;;;5036668;28;20025;-46
2023/04/27 08:27:37;;;;;;;12.10;6.55;;;11.60;52.20;;;;;;5039875;28;20041;-47
2023/04/27 08:30:04;;;;;;;7.82;5.55;;;11.60;52.00;;;;;;5046741;28;20220;-44
2023/04/27 08:32:31;;;;;;;13.02;7.15;;;11.70;52.20;;;;;;5049448;28;20041;-49
2023/04/27 08:34:58;;;;;;;9.90;7.45;;;11.60;51.90;;;;;;5038497;28;20046;-47
2023/04/27 08:37:24;;;;;;;8.90;6.15;;;11.80;52.20;;;;;;5040766;28;20044;-45
2023/04/27 08:39:51;;;;;;;8.75;6.55;;;11.80;51.80;;;;;;5044007;28;20041;-46
2023/04/27 08:42:17;;;;;;;11.02;6.45;;;11.90;51.90;;;;;;5038225;28;20065;-45
2023/04/27 08:44:44;;;;;;;9.05;6.13;;;11.90;51.70;;;;;;5030938;28;20049;-46
2023/04/27 08:47:11;;;;;;;6.05;5.38;;;12.00;51.20;;;;;;5044024;28;20539;-46
2023/04/27 08:49:40;;;;;;;7.53;6.10;;;12.00;50.80;;;;;;5041716;28;20437;-50
2023/04/27 08:52:12;;;;;;;9.50;5.72;;;12.00;50.70;;;;;;5041103;28;20615;-45
2023/04/27 08:54:38;;;;;;;6.35;5.07;;;12.10;50.50;;;;;;5037242;28;20041;-49
2023/04/27 08:57:13;;;;;;;6.93;5.60;;;12.20;50.60;;;;;;5034411;28;20057;-48
2023/04/27 08:59:39;;;;;;;10.77;6.40;;;12.20;50.40;;;;;;5044151;28;20052;-49
2023/04/27 09:02:20;;;;;;;12.52;5.63;;;12.20;50.10;;;;;;5041192;28;20044;-51
2023/04/27 09:04:47;;;;;;;7.70;5.45;;;12.40;49.80;;;;;;5046863;28;20421;-47
2023/04/27 09:07:16;;;;;;;6.43;4.65;;;12.40;49.60;;;;;;5040327;28;20045;-47
2023/04/27 09:09:44;;;;;;;8.32;5.30;;;12.40;49.90;;;;;;5033033;28;20041;-47
2023/04/27 09:12:19;;;;;;;9.00;5.18;;;12.50;49.60;;;;;;5046227;22;20045;-44
2023/04/27 09:15:02;;;;;;;7.32;5.18;;;12.50;49.70;;;;;;5033773;28;20064;-45
2023/04/27 09:17:30;;;;;;;8.65;5.72;;;12.60;49.50;;;;;;5037962;28;20037;-44
2023/04/27 09:20:11;;;;;;;6.45;5.25;;;12.60;49.40;;;;;;5039085;28;20037;-45
2023/04/27 09:22:43;;;;;;;5.38;4.80;;;12.70;49.00;;;;;;5018124;28;20438;-48
2023/04/27 09:25:21;;;;;;;7.57;5.50;;;12.80;49.10;;;;;;5014211;28;20046;-44
2023/04/27 09:27:47;;;;;;;7.05;4.53;;;12.90;49.00;;;;;;5013445;28;20300;-47
2023/04/27 09:30:14;;;;;;;6.13;5.35;;;13.00;48.20;;;;;;5016654;28;20042;-44
2023/04/27 09:32:52;;;;;;;6.93;4.93;;;13.10;48.40;;;;;;5009475;28;20550;-46
2023/04/27 09:35:31;;;;;;;8.55;6.32;;;13.20;48.30;;;;;;5013475;28;20042;-49
2023/04/27 09:37:59;;;;;;;5.63;4.53;;;13.30;47.70;;;;;;5015585;28;20087;-45
2023/04/27 09:40:29;;;;;;;5.93;4.50;;;13.40;47.90;;;;;;5012854;28;20053;-46
2023/04/27 09:42:59;;;;;;;10.77;5.70;;;13.50;48.40;;;;;;5009626;28;20077;-46
2023/04/27 09:45:27;;;;;;;7.38;5.13;;;13.60;47.70;;;;;;5013822;28;20650;-48
2023/04/27 09:47:53;;;;;;;6.40;4.47;;;13.70;47.50;;;;;;5021317;28;20449;-50
2023/04/27 09:50:23;;;;;;;8.38;4.60;;;13.80;47.10;;;;;;5012324;28;20498;-46
2023/04/27 09:52:50;;;;;;;5.97;4.90;;;14.00;47.00;;;;;;5009840;28;20044;-46
2023/04/27 09:55:26;;;;;;;7.00;4.32;;;14.10;46.30;;;;;;5017294;28;20498;-47
2023/04/27 09:58:05;;;;;;;4.80;3.92;;;14.20;45.50;;;;;;5020399;28;20052;-48
2023/04/27 10:00:40;;;;;;;4.28;3.88;;;14.30;45.80;;;;;;5016187;28;20034;-44
2023/04/27 10:03:29;;;;;;;6.95;4.43;;;14.50;45.30;;;;;;5009337;28;20052;-50
2023/04/27 10:06:21;;;;;;;5.93;3.97;;;14.70;45.00;;;;;;5018205;28;20084;-47
2023/04/27 10:08:49;;;;;;;;;;;14.70;45.10;;;;;;5022771;28;20450;-45
2023/04/27 10:11:18;;;;;;;5.53;4.30;;;14.90;46.00;;;;;;5027861;28;20318;-43
2023/04/27 10:13:52;;;;;;;7.43;5.00;;;15.00;44.40;;;;;;5027441;28;20520;-44
2023/04/27 10:16:21;;;;;;;3.67;3.30;;;15.10;43.20;;;;;;5026194;28;20099;-44
2023/04/27 10:18:55;;;;;;;7.50;4.50;;;15.10;43.20;;;;;;5027853;28;20420;-44
2023/04/27 10:21:22;;;;;;;6.47;4.90;;;15.20;42.30;;;;;;5020061;28;20038;-45
2023/04/27 10:23:50;;;;;;;6.55;4.78;;;15.20;42.30;;;;;;5013364;28;20049;-45
2023/04/27 10:26:24;;;;;;;5.43;4.18;;;15.30;42.40;;;;;;5008487;28;20268;-44
2023/04/27 10:29:07;;;;;;;5.32;4.00;;;15.30;42.10;;;;;;5012929;28;20069;-45
2023/04/27 10:31:34;;;;;;;5.63;4.10;;;15.40;41.80;;;;;;5022569;28;20418;-45
2023/04/27 10:34:09;;;;;;;8.45;4.53;;;15.40;42.60;;;;;;5017989;28;20401;-44
2023/04/27 10:36:37;;;;;;;4.65;4.13;;;15.40;41.60;;;;;;5013699;28;20382;-45
2023/04/27 10:39:21;;;;;;;7.38;4.55;;;15.50;41.70;;;;;;5005326;28;20042;-43
2023/04/27 10:41:58;;;;;;;6.38;4.18;;;15.60;41.40;;;;;;5012697;28;20074;-45
2023/04/27 10:44:27;;;;;;;6.47;4.25;;;15.60;41.20;;;;;;5011980;28;20080;-44
2023/04/27 10:46:56;;;;;;;5.65;4.13;;;15.70;41.30;;;;;;5007780;28;20045;-44
2023/04/27 10:49:22;;;;;;;7.88;4.75;;;15.80;41.70;;;;;;5007213;28;20050;-44
2023/04/27 10:51:50;;;;;;;5.43;4.93;;;15.80;42.00;;;;;;5025345;28;20045;-46
2023/04/27 10:54:17;;;;;;;5.60;4.65;;;15.90;41.30;;;;;;5026673;28;20127;-50
2023/04/27 10:56:46;;;;;;;5.85;4.93;;;15.90;40.70;;;;;;5030581;28;20124;-46
2023/04/27 10:59:13;;;;;;;5.40;3.80;;;16.00;41.70;;;;;;5024370;28;20057;-47
2023/04/27 11:01:41;;;;;;;5.95;3.70;;;16.00;40.70;;;;;;5026645;28;20126;-46
2023/04/27 11:04:10;;;;;;;6.32;3.60;;;16.10;40.10;;;;;;5014882;28;20049;-44
2023/04/27 11:06:42;;;;;;;5.03;4.40;;;16.10;40.20;;;;;;5027017;28;20056;-47
2023/04/27 11:09:09;;;;;;;5.82;4.28;;;16.20;39.70;;;;;;5024083;28;20459;-46
2023/04/27 11:11:36;;;;;;;5.32;4.20;;;16.40;39.90;;;;;;5036681;28;20072;-46
2023/04/27 11:14:03;;;;;;;4.85;4.35;;;16.50;39.60;;;;;;5030627;28;20099;-47
2023/04/27 11:16:32;;;;;;;4.65;3.88;;;16.60;39.50;;;;;;5025618;28;20148;-45
2023/04/27 11:19:05;;;;;;;7.20;4.68;;;16.70;39.30;;;;;;5030990;28;20072;-45
2023/04/27 11:21:32;;;;;;;5.38;4.30;;;16.70;38.50;;;;;;5029123;28;20052;-48
2023/04/27 11:24:06;;;;;;;6.43;4.32;;;16.80;39.60;;;;;;5018265;28;20030;-43
2023/04/27 11:26:33;;;;;;;4.20;3.78;;;16.90;38.10;;;;;;5028421;28;20035;-44
2023/04/27 11:29:08;;;;;;;6.65;4.38;;;17.00;38.70;;;;;;5023766;28;20033;-45
2023/04/27 11:31:46;;;;;;;5.63;4.20;;;17.10;38.70;;;;;;5029543;28;20060;-48
2023/04/27 11:34:26;;;;;;;5.35;4.85;;;17.20;38.20;;;;;;5033478;28;20045;-45
2023/04/27 11:37:07;;;;;;;5.78;4.70;;;17.30;37.70;;;;;;5017753;28;20620;-45
2023/04/27 11:39:44;;;;;;;5.88;4.43;;;17.30;37.70;;;;;;5030029;28;20136;-45
2023/04/27 11:42:24;;;;;;;5.63;4.45;;;17.40;38.40;;;;;;5026530;28;20038;-45
2023/04/27 11:44:53;;;;;;;5.93;4.30;;;17.40;37.50;;;;;;5030075;28;20052;-45
2023/04/27 11:47:21;;;;;;;6.72;4.65;;;17.40;38.20;;;;;;5027724;28;20037;-45
2023/04/27 11:49:50;;;;;;;7.07;5.38;;;17.50;37.80;;;;;;5021150;28;20045;-45
2023/04/27 11:52:17;;;;;;;5.32;4.70;;;17.60;37.60;;;;;;5028172;28;20052;-45
2023/04/27 11:54:52;;;;;;;5.47;4.90;;;17.60;37.60;;;;;;5027077;28;20049;-48
2023/04/27 11:57:26;;;;;;;6.30;5.07;;;17.70;37.00;;;;;;5037997;28;20136;-47
2023/04/27 11:59:53;;;;;;;6.10;4.78;;;17.70;37.70;;;;;;5019445;28;20053;-45
2023/04/27 12:02:21;;;;;;;7.05;5.05;;;17.70;38.00;;;;;;5029027;28;20045;-46
2023/04/27 12:04:50;;;;;;;7.32;4.53;;;17.70;37.90;;;;;;5030366;28;20449;-47
2023/04/27 12:07:18;;;;;;;6.10;4.68;;;17.60;37.60;;;;;;5025665;28;20533;-48
2023/04/27 12:09:45;;;;;;;7.78;5.05;;;17.60;37.50;;;;;;5026053;28;20041;-47
2023/04/27 12:12:13;;;;;;;8.43;5.07;;;17.60;37.20;;;;;;5020321;28;20062;-47
2023/04/27 12:14:40;;;;;;;5.97;5.35;;;17.60;36.90;;;;;;5023627;28;20103;-46
2023/04/27 12:17:06;;;;;;;7.05;5.13;;;17.60;36.60;;;;;;5028591;28;20045;-45
2023/04/27 12:19:33;;;;;;;6.28;4.38;;;17.50;37.20;;;;;;5017308;28;20054;-47
2023/04/27 12:22:03;;;;;;;6.35;5.63;;;17.50;37.60;;;;;;5013530;28;20053;-48
2023/04/27 12:24:30;;;;;;;6.88;5.07;;;17.50;37.40;;;;;;5010427;28;20045;-47
2023/04/27 12:26:57;;;;;;;6.32;4.68;;;17.50;37.40;;;;;;5020980;28;20511;-45
2023/04/27 12:29:24;;;;;;;5.32;4.68;;;17.50;37.80;;;;;;5016082;28;20045;-47
2023/04/27 12:31:50;;;;;;;7.13;4.68;;;17.50;38.10;;;;;;5014923;28;20628;-47
2023/04/27 12:34:17;;;;;;;6.90;5.20;;;17.50;37.80;;;;;;5009804;28;20096;-46
2023/04/27 12:36:44;;;;;;;6.63;5.20;;;17.60;37.70;;;;;;5015975;28;20513;-44
2023/04/27 12:39:16;;;;;;;7.03;5.80;;;17.60;37.80;;;;;;5019954;28;20069;-46
2023/04/27 12:41:43;;;;;;;;;;;17.70;36.90;;;;;;5014039;28;20046;-48
2023/04/27 12:44:11;;;;;;;8.38;4.93;;;17.80;38.20;;;;;;5012327;28;20031;-47
2023/04/27 12:46:39;;;;;;;7.53;4.97;;;17.90;37.40;;;;;;5019103;28;20529;-46
2023/04/27 12:49:07;;;;;;;5.95;5.15;;;17.90;36.90;;;;;;5009534;28;20034;-45
2023/04/27 12:51:34;;;;;;;5.10;4.60;;;18.00;37.50;;;;;;5012837;28;20042;-46
2023/04/27 12:54:05;;;;;;;8.02;5.05;;;18.10;36.90;;;;;;5012061;28;20034;-49
2023/04/27 12:56:33;;;;;;;8.13;5.67;;;18.20;36.20;;;;;;5019728;28;20100;-48
2023/04/27 12:59:00;;;;;;;6.05;5.35;;;18.30;37.00;;;;;;5016292;28;20300;-48
2023/04/27 13:01:30;;;;;;;5.97;5.38;;;18.40;36.20;;;;;;5017583;28;20053;-45
2023/04/27 13:04:02;;;;;;;5.57;4.97;;;18.40;35.80;;;;;;5007481;28;20792;-46